Time;durP1;ratioP1;P1;durP2;ratioP2;P2;SDS_P1;SDS_P2;PMS_P1;PMS_P2;Temp;Humidity;BMP_temperature;BMP_pressure;BME280_temperature;BME280_humidity;BME280_pressure;Samples;Min_cycle;Max_cycle;Signal;HPM_P1;HPM_P2
2022/06/27 04:09:29;;;;;;;4.10;3.70;;;21.20;99.90;;;;;;5940412;23;20264;-80
2022/06/27 04:11:55;;;;;;;4.30;3.90;;;21.20;99.90;;;;;;4924055;29;20154;-82
2022/06/27 04:14:21;;;;;;;4.22;3.83;;;21.30;99.90;;;;;;4958072;29;20024;-81
2022/06/27 04:17:00;;;;;;;5.55;3.85;;;21.40;99.90;;;;;;4951869;28;20032;-82
2022/06/27 04:27:17;;;;;;;6.40;4.00;;;21.80;99.90;;;;;;5963355;23;20030;-81
2022/06/27 04:33:07;;;;;;;4.85;3.70;;;21.90;99.90;;;;;;5104858;23;20585;-80
2022/06/27 04:35:36;;;;;;;6.55;4.15;;;22.00;99.90;;;;;;4938852;29;20054;-79
2022/06/27 04:38:14;;;;;;;4.43;3.55;;;22.10;99.90;;;;;;4953682;28;20032;-83
2022/06/27 04:43:15;;;;;;;7.25;4.10;;;21.90;99.90;;;;;;5528110;23;20031;-81
2022/06/27 04:45:41;;;;;;;9.10;3.88;;;21.90;99.90;;;;;;4960521;23;20135;-81
2022/06/27 04:48:12;;;;;;;6.35;4.35;;;22.00;99.90;;;;;;4942127;29;20028;-80
2022/06/27 04:50:40;;;;;;;6.15;3.88;;;22.10;99.90;;;;;;4932551;29;20811;-80
2022/06/27 04:53:44;;;;;;;5.60;3.90;;;22.30;99.90;;;;;;4959701;29;20020;-81
2022/06/27 04:56:11;;;;;;;4.05;3.67;;;22.40;99.90;;;;;;5275202;23;20018;-74
2022/06/27 04:58:37;;;;;;;5.40;3.30;;;22.50;99.90;;;;;;4932908;28;20011;-74
2022/06/27 05:01:03;;;;;;;4.88;3.90;;;22.70;99.90;;;;;;4949753;28;20126;-74
2022/06/27 05:03:30;;;;;;;5.95;4.45;;;22.90;99.90;;;;;;4942359;28;20577;-76
2022/06/27 05:05:55;;;;;;;7.63;4.10;;;23.10;99.90;;;;;;4939704;28;20020;-75
2022/06/27 05:08:24;;;;;;;7.97;3.83;;;23.10;99.90;;;;;;4935885;28;20032;-69
2022/06/27 05:10:50;;;;;;;5.70;4.05;;;23.20;99.90;;;;;;4930247;29;20127;-69
2022/06/27 05:13:15;;;;;;;5.63;3.83;;;23.40;99.90;;;;;;4934420;28;20164;-69
2022/06/27 05:15:41;;;;;;;4.45;3.20;;;23.40;99.90;;;;;;4923806;29;20139;-69
2022/06/27 05:18:07;;;;;;;3.83;3.40;;;23.60;99.90;;;;;;4932372;29;20161;-69
2022/06/27 05:20:33;;;;;;;5.28;3.03;;;23.70;99.90;;;;;;4919039;29;20055;-68
2022/06/27 05:23:02;;;;;;;3.83;2.75;;;23.90;99.90;;;;;;4937536;28;20019;-69
2022/06/27 05:25:28;;;;;;;4.22;2.88;;;24.10;99.90;;;;;;4916395;29;20027;-72
2022/06/27 05:27:56;;;;;;;3.78;2.72;;;24.30;99.90;;;;;;4925568;29;20106;-73
2022/06/27 05:30:22;;;;;;;3.75;2.88;;;24.50;99.90;;;;;;4920708;29;21428;-74
2022/06/27 05:32:47;;;;;;;4.05;2.50;;;24.60;99.90;;;;;;4924875;29;20024;-72
2022/06/27 05:35:14;;;;;;;4.40;2.58;;;24.80;99.90;;;;;;4925425;29;20034;-73
2022/06/27 05:37:44;;;;;;;4.28;3.13;;;25.00;99.90;;;;;;4919285;28;20363;-73
2022/06/27 05:40:09;;;;;;;7.35;2.95;;;25.30;99.20;;;;;;4922422;29;20032;-73
2022/06/27 05:42:36;;;;;;;4.22;2.65;;;25.40;99.10;;;;;;4919513;28;20034;-73
2022/06/27 05:45:03;;;;;;;7.28;2.45;;;25.80;98.30;;;;;;4920768;29;20012;-73
2022/06/27 05:47:30;;;;;;;5.03;2.60;;;26.40;98.10;;;;;;4934808;28;20043;-73
2022/06/27 05:50:04;;;;;;;3.33;2.50;;;27.00;96.50;;;;;;4923381;28;20106;-73
2022/06/27 05:52:33;;;;;;;4.68;2.28;;;27.90;95.10;;;;;;4915786;29;20038;-73
2022/06/27 05:55:00;;;;;;;3.08;2.35;;;28.60;93.30;;;;;;4919389;29;20027;-73
2022/06/27 05:57:27;;;;;;;3.70;2.10;;;29.20;92.10;;;;;;4931862;28;20503;-73
2022/06/27 05:59:55;;;;;;;5.43;2.95;;;29.60;91.10;;;;;;4916787;29;20064;-74
2022/06/27 06:02:23;;;;;;;3.65;2.55;;;30.00;90.20;;;;;;4922811;29;20028;-74
2022/06/27 06:04:50;;;;;;;4.88;2.63;;;30.30;90.00;;;;;;4936487;28;20024;-73
2022/06/27 06:07:16;;;;;;;6.45;2.33;;;30.40;87.50;;;;;;4922683;29;20055;-73
2022/06/27 06:09:44;;;;;;;6.65;2.50;;;29.70;89.50;;;;;;4916294;29;20802;-73
2022/06/27 06:12:11;;;;;;;4.13;2.38;;;29.20;90.10;;;;;;4919328;29;20095;-73
2022/06/27 06:14:37;;;;;;;5.50;2.60;;;28.70;90.80;;;;;;4916728;29;20059;-73
2022/06/27 06:17:04;;;;;;;4.13;2.65;;;27.90;92.00;;;;;;4923726;29;20085;-73
2022/06/27 06:19:32;;;;;;;4.65;2.42;;;27.70;92.60;;;;;;4935071;28;20112;-73
2022/06/27 06:21:59;;;;;;;5.25;3.05;;;27.60;92.80;;;;;;4921487;29;20027;-73
2022/06/27 06:24:26;;;;;;;3.42;2.72;;;27.60;93.20;;;;;;4921784;29;20516;-73
2022/06/27 06:26:53;;;;;;;4.82;2.78;;;28.10;92.90;;;;;;4919632;29;20035;-73
2022/06/27 06:29:23;;;;;;;5.07;2.42;;;28.50;91.90;;;;;;4923084;29;20042;-73
2022/06/27 06:31:49;;;;;;;2.95;2.35;;;28.40;92.10;;;;;;4920127;29;20020;-73
2022/06/27 06:34:16;;;;;;;4.28;2.55;;;28.90;91.70;;;;;;4938397;28;20055;-73
2022/06/27 06:36:43;;;;;;;4.40;2.45;;;29.60;90.80;;;;;;4936168;28;20107;-74
2022/06/27 06:39:11;;;;;;;2.55;2.25;;;30.30;89.40;;;;;;4920836;28;20031;-73
2022/06/27 06:41:37;;;;;;;5.90;2.20;;;31.10;87.10;;;;;;4911558;29;20027;-73
2022/06/27 06:44:05;;;;;;;5.82;2.60;;;31.70;84.80;;;;;;4922222;29;20020;-73
2022/06/27 06:46:32;;;;;;;3.25;2.47;;;32.20;82.80;;;;;;4935606;28;20504;-73
2022/06/27 06:49:02;;;;;;;9.35;2.72;;;32.70;82.10;;;;;;4934091;28;20099;-73
2022/06/27 06:51:36;;;;;;;3.10;2.30;;;33.30;80.40;;;;;;4915781;29;20376;-74
2022/06/27 06:54:07;;;;;;;3.50;2.55;;;33.50;78.50;;;;;;4922079;29;20566;-73
2022/06/27 06:56:33;;;;;;;2.83;2.30;;;33.60;77.20;;;;;;4916967;29;20159;-74
2022/06/27 06:59:03;;;;;;;5.22;2.47;;;33.60;77.30;;;;;;4919600;29;20038;-74
2022/06/27 07:01:31;;;;;;;4.55;2.47;;;33.50;76.20;;;;;;4912549;29;20020;-74
2022/06/27 07:03:57;;;;;;;2.58;2.13;;;33.10;76.20;;;;;;4920726;29;20115;-74
2022/06/27 07:06:27;;;;;;;4.50;2.30;;;32.70;77.10;;;;;;4923468;29;20142;-73
2022/06/27 07:08:53;;;;;;;3.58;2.25;;;33.20;75.80;;;;;;4920902;29;20039;-74
2022/06/27 07:11:21;;;;;;;5.47;2.42;;;33.60;75.70;;;;;;4922113;28;20032;-74
2022/06/27 07:13:49;;;;;;;6.10;2.40;;;33.90;74.40;;;;;;4918229;29;20020;-74
2022/06/27 07:16:15;;;;;;;6.65;2.30;;;34.40;72.40;;;;;;4921322;29;20482;-74
2022/06/27 07:18:46;;;;;;;3.25;2.13;;;33.70;72.90;;;;;;4931942;28;20024;-74
2022/06/27 07:21:16;;;;;;;4.57;2.53;;;33.60;73.60;;;;;;4922236;28;20028;-74
2022/06/27 07:23:46;;;;;;;4.65;2.35;;;34.10;72.20;;;;;;4933679;28;20024;-73
2022/06/27 07:26:13;;;;;;;4.93;2.10;;;34.60;71.20;;;;;;4921558;29;20016;-74
2022/06/27 07:28:40;;;;;;;7.30;2.30;;;34.10;71.40;;;;;;4919142;29;20028;-74
2022/06/27 07:31:11;;;;;;;5.70;2.42;;;33.20;72.20;;;;;;4921157;29;20456;-74
2022/06/27 07:33:36;;;;;;;4.95;2.78;;;32.90;74.10;;;;;;4917648;29;20020;-75
2022/06/27 07:36:14;;;;;;;4.78;2.38;;;32.90;73.20;;;;;;4918955;29;20030;-74
2022/06/27 07:38:41;;;;;;;4.97;2.28;;;33.00;73.30;;;;;;4917295;29;20022;-74
2022/06/27 07:41:13;;;;;;;6.60;2.40;;;33.60;71.80;;;;;;4918461;29;20067;-74
2022/06/27 07:43:42;;;;;;;4.28;2.38;;;33.20;72.30;;;;;;4917459;29;20397;-74
2022/06/27 07:46:08;;;;;;;3.65;2.28;;;33.40;72.00;;;;;;4919405;29;20031;-74
2022/06/27 07:48:35;;;;;;;3.88;2.38;;;34.20;71.60;;;;;;4930821;28;20662;-74
2022/06/27 07:51:01;;;;;;;4.30;2.38;;;34.40;71.30;;;;;;4923852;28;20035;-74
2022/06/27 07:53:29;;;;;;;3.05;2.28;;;35.20;68.70;;;;;;4921114;29;20080;-74
2022/06/27 07:56:00;;;;;;;6.72;2.20;;;35.20;68.60;;;;;;4924363;29;20023;-75
2022/06/27 07:58:33;;;;;;;4.70;2.45;;;34.40;69.50;;;;;;4932089;28;20459;-74
2022/06/27 08:01:01;;;;;;;4.88;2.10;;;34.30;70.20;;;;;;4918303;29;20120;-74
2022/06/27 08:03:40;;;;;;;2.53;2.00;;;34.40;69.20;;;;;;4919882;29;20573;-74
2022/06/27 08:06:11;;;;;;;3.28;2.25;;;34.50;68.40;;;;;;4925163;29;20031;-74
2022/06/27 08:08:39;;;;;;;3.50;2.15;;;34.50;68.40;;;;;;4914941;28;20035;-75
2022/06/27 08:11:08;;;;;;;2.72;2.33;;;35.10;67.40;;;;;;4920590;29;20357;-74
2022/06/27 08:13:37;;;;;;;3.88;2.10;;;35.80;65.70;;;;;;4916487;29;20046;-74
2022/06/27 08:16:05;;;;;;;2.63;2.00;;;36.10;65.50;;;;;;4920394;28;20028;-74
2022/06/27 08:18:33;;;;;;;4.47;2.17;;;36.20;64.50;;;;;;4918138;29;20523;-74
2022/06/27 08:21:02;;;;;;;4.28;2.35;;;35.90;65.10;;;;;;4940137;28;20082;-74
2022/06/27 08:23:31;;;;;;;5.20;2.45;;;35.50;65.20;;;;;;4918462;29;20381;-74
2022/06/27 08:26:00;;;;;;;6.82;2.15;;;35.90;64.90;;;;;;4921303;29;20074;-74
2022/06/27 08:28:28;;;;;;;5.30;2.15;;;35.70;64.80;;;;;;4922041;29;20488;-74
2022/06/27 08:30:57;;;;;;;6.45;2.60;;;36.10;65.10;;;;;;4918716;29;20023;-75
2022/06/27 08:33:31;;;;;;;6.07;2.50;;;36.90;62.90;;;;;;4921982;29;20028;-74
2022/06/27 08:35:58;;;;;;;3.50;1.95;;;37.20;62.60;;;;;;4935662;28;20058;-74
2022/06/27 08:38:24;;;;;;;7.10;2.10;;;37.20;62.70;;;;;;4921438;29;20942;-75
2022/06/27 08:40:52;;;;;;;6.32;2.42;;;37.10;61.60;;;;;;4918951;29;20111;-72
2022/06/27 08:43:19;;;;;;;2.50;2.30;;;36.80;61.80;;;;;;4922819;29;20436;-73
2022/06/27 08:45:47;;;;;;;4.00;2.20;;;36.90;62.30;;;;;;4918351;29;20407;-72
2022/06/27 08:48:14;;;;;;;5.18;2.10;;;37.30;61.70;;;;;;4919375;29;20020;-73
2022/06/27 08:50:42;;;;;;;3.10;2.60;;;36.80;61.30;;;;;;4916947;28;20044;-74
2022/06/27 08:53:11;;;;;;;7.03;2.35;;;36.00;63.20;;;;;;4938625;28;20031;-75
2022/06/27 08:55:50;;;;;;;5.90;2.50;;;36.00;63.00;;;;;;4916205;29;20019;-74
2022/06/27 08:58:16;;;;;;;3.63;2.22;;;35.70;63.30;;;;;;4924023;29;20035;-75
2022/06/27 09:00:45;;;;;;;4.00;1.98;;;36.00;63.30;;;;;;4922449;29;20016;-75
2022/06/27 09:03:20;;;;;;;2.88;1.95;;;36.00;63.00;;;;;;4920654;29;20027;-75
2022/06/27 09:06:06;;;;;;;5.13;2.30;;;36.10;62.70;;;;;;4934182;28;20474;-75
2022/06/27 09:08:36;;;;;;;5.65;2.78;;;36.40;61.60;;;;;;4920048;29;20362;-75
2022/06/27 09:11:08;;;;;;;3.72;2.20;;;36.60;61.30;;;;;;4923916;29;20468;-74
2022/06/27 09:13:34;;;;;;;6.40;2.45;;;36.30;61.60;;;;;;4922514;29;20031;-75
2022/06/27 09:16:02;;;;;;;3.58;2.35;;;36.40;61.50;;;;;;4922569;29;20027;-73
2022/06/27 09:18:33;;;;;;;4.47;2.10;;;37.00;60.60;;;;;;4924646;29;20102;-73
2022/06/27 09:21:09;;;;;;;7.47;2.15;;;37.40;60.10;;;;;;4919826;29;20023;-73
2022/06/27 09:23:50;;;;;;;;;;;38.20;59.60;;;;;;4920204;29;20066;-73
2022/06/27 09:26:29;;;;;;;5.28;2.13;;;38.40;57.70;;;;;;4919461;29;20277;-72
2022/06/27 09:29:01;;;;;;;5.00;2.30;;;37.90;58.30;;;;;;4917215;29;20096;-72
2022/06/27 09:31:28;;;;;;;2.35;2.15;;;38.10;58.50;;;;;;4923481;29;20326;-73
2022/06/27 09:34:09;;;;;;;4.63;2.22;;;38.20;57.50;;;;;;4916762;29;20089;-73
2022/06/27 09:37:00;;;;;;;4.60;2.63;;;39.10;57.00;;;;;;4920187;29;20476;-73
2022/06/27 09:39:29;;;;;;;3.38;1.92;;;39.40;56.30;;;;;;4916802;29;20147;-72
2022/06/27 09:42:02;;;;;;;4.53;2.58;;;38.90;56.30;;;;;;4936762;28;20070;-72
2022/06/27 09:44:28;;;;;;;4.93;1.98;;;37.90;55.50;;;;;;4924178;29;20021;-75
2022/06/27 09:47:16;;;;;;;7.63;2.28;;;37.80;55.60;;;;;;4935729;28;20130;-73
2022/06/27 09:49:44;;;;;;;4.78;1.92;;;38.30;54.80;;;;;;4920953;29;20020;-73
2022/06/27 09:52:15;;;;;;;3.83;2.00;;;38.30;54.70;;;;;;4931594;28;20027;-73
2022/06/27 09:54:44;;;;;;;4.25;2.30;;;38.40;54.90;;;;;;4924098;29;20043;-73
2022/06/27 09:57:11;;;;;;;4.85;2.08;;;38.50;54.40;;;;;;4911212;29;20106;-74
2022/06/27 09:59:38;;;;;;;6.68;2.35;;;38.70;54.80;;;;;;4916645;28;20331;-74
2022/06/27 10:02:05;;;;;;;4.85;2.00;;;39.10;53.70;;;;;;4913510;29;20028;-73
2022/06/27 10:04:32;;;;;;;8.50;2.35;;;39.10;53.60;;;;;;4918138;28;20043;-73
2022/06/27 10:07:01;;;;;;;6.28;2.72;;;39.30;53.50;;;;;;4918482;28;20077;-74
2022/06/27 10:09:29;;;;;;;4.68;2.00;;;38.00;54.50;;;;;;4915993;28;20019;-75
2022/06/27 10:12:23;;;;;;;4.78;2.30;;;37.20;55.20;;;;;;4920709;28;20019;-75
2022/06/27 10:15:10;;;;;;;3.58;2.10;;;36.40;56.50;;;;;;4936069;28;20024;-75
2022/06/27 10:17:46;;;;;;;3.97;2.65;;;37.60;56.30;;;;;;4922052;29;20030;-73
2022/06/27 10:20:29;;;;;;;;;;;38.70;53.90;;;;;;4934986;28;20024;-73
2022/06/27 10:23:13;;;;;;;6.38;2.08;;;38.70;53.40;;;;;;4940188;28;19918;-74
2022/06/27 10:25:46;;;;;;;5.72;2.25;;;39.60;52.80;;;;;;4923727;29;20038;-74
2022/06/27 10:28:14;;;;;;;3.72;2.15;;;40.30;52.20;;;;;;4932577;28;20023;-74
2022/06/27 10:30:51;;;;;;;5.13;2.20;;;40.40;51.30;;;;;;4936669;28;20036;-73
2022/06/27 10:33:23;;;;;;;3.10;2.05;;;41.10;50.50;;;;;;4931930;28;20441;-73
2022/06/27 10:38:39;;;;;;;4.40;2.42;;;40.10;51.10;;;;;;4917549;29;20095;-73
2022/06/27 10:41:08;;;;;;;5.97;2.30;;;40.10;51.00;;;;;;4919228;29;20110;-73
2022/06/27 10:43:40;;;;;;;3.05;1.70;;;39.80;50.40;;;;;;4935121;28;20024;-74
2022/06/27 10:46:09;;;;;;;4.63;2.00;;;39.40;51.20;;;;;;4925240;29;20034;-74
2022/06/27 10:48:45;;;;;;;4.40;2.42;;;39.90;50.60;;;;;;4922506;29;20078;-74
2022/06/27 10:51:17;;;;;;;3.58;2.50;;;40.20;50.20;;;;;;4934372;28;20020;-73
2022/06/27 10:53:45;;;;;;;6.72;2.42;;;40.40;50.80;;;;;;4924639;29;20064;-73
2022/06/27 10:56:26;;;;;;;7.07;2.35;;;39.70;50.60;;;;;;4933720;28;20118;-75
2022/06/27 10:58:53;;;;;;;4.90;2.35;;;37.60;52.70;;;;;;4922040;29;20705;-75
2022/06/27 11:01:20;;;;;;;6.65;2.45;;;35.30;55.00;;;;;;4915070;29;20027;-75
2022/06/27 11:03:49;;;;;;;5.68;2.67;;;34.00;57.50;;;;;;4937210;28;20028;-75
2022/06/27 11:06:17;;;;;;;3.63;2.15;;;33.50;59.10;;;;;;4930473;28;20115;-75
2022/06/27 11:08:46;;;;;;;2.83;2.13;;;33.10;58.90;;;;;;4922648;29;20016;-75
2022/06/27 11:11:18;;;;;;;4.80;2.15;;;33.10;60.20;;;;;;4919152;29;20098;-76
2022/06/27 11:13:56;;;;;;;6.28;2.45;;;33.20;60.00;;;;;;4920178;29;20032;-76
2022/06/27 11:16:26;;;;;;;7.28;2.58;;;32.90;60.10;;;;;;4920670;29;20026;-76
2022/06/27 11:18:58;;;;;;;7.03;2.47;;;32.90;60.30;;;;;;4916896;29;20458;-75
2022/06/27 11:21:32;;;;;;;5.18;2.40;;;32.90;60.40;;;;;;4924663;29;20031;-75
2022/06/27 11:24:01;;;;;;;3.58;2.35;;;33.00;60.60;;;;;;4917410;29;20107;-76
2022/06/27 11:26:38;;;;;;;4.93;2.97;;;32.90;60.70;;;;;;4919646;29;20051;-75
2022/06/27 11:32:03;;;;;;;6.15;2.97;;;32.70;61.20;;;;;;4916944;29;20697;-75
2022/06/27 11:34:32;;;;;;;5.88;2.40;;;32.70;61.50;;;;;;4919420;29;20690;-76
2022/06/27 11:37:02;;;;;;;4.57;2.75;;;32.60;61.10;;;;;;4935425;28;20035;-75
2022/06/27 11:39:32;;;;;;;3.45;2.40;;;32.40;61.40;;;;;;4918884;29;20020;-75
2022/06/27 11:42:09;;;;;;;10.52;3.28;;;32.30;61.00;;;;;;4915481;29;20026;-75
2022/06/27 11:44:38;;;;;;;5.55;2.58;;;32.40;62.40;;;;;;4917640;29;20483;-75
2022/06/27 11:47:08;;;;;;;4.10;2.30;;;32.40;61.00;;;;;;4920469;29;20016;-75
2022/06/27 11:49:39;;;;;;;4.82;2.30;;;32.40;61.00;;;;;;4933847;28;20850;-76
2022/06/27 11:52:13;;;;;;;6.32;2.70;;;32.50;60.80;;;;;;4920304;29;20372;-76
2022/06/27 11:54:46;;;;;;;5.88;2.65;;;32.60;60.40;;;;;;4917459;29;20801;-76
2022/06/27 11:57:34;;;;;;;6.97;2.72;;;32.70;60.20;;;;;;4920950;29;20052;-76
2022/06/27 12:00:06;;;;;;;5.43;2.35;;;32.70;59.80;;;;;;4918930;29;20023;-75
2022/06/27 12:02:38;;;;;;;4.25;2.50;;;32.80;60.70;;;;;;4917485;29;20023;-75
2022/06/27 12:05:11;;;;;;;5.80;2.75;;;32.80;60.70;;;;;;4918930;29;20102;-75
2022/06/27 12:08:11;;;;;;;5.97;2.90;;;32.80;61.00;;;;;;4920213;29;20044;-75
2022/06/27 12:13:33;;;;;;;5.97;2.50;;;32.80;60.00;;;;;;4920739;29;20031;-75
2022/06/27 12:16:02;;;;;;;6.63;2.70;;;32.80;60.10;;;;;;4931584;28;20031;-76
2022/06/27 12:18:42;;;;;;;4.93;2.55;;;33.00;59.90;;;;;;4932042;28;20483;-76
2022/06/27 12:21:10;;;;;;;6.03;2.47;;;33.10;59.10;;;;;;4920052;29;20112;-76
2022/06/27 12:23:38;;;;;;;4.90;2.80;;;33.30;59.50;;;;;;4936829;28;20024;-75
2022/06/27 12:26:05;;;;;;;3.15;2.67;;;33.20;59.00;;;;;;4916050;29;20111;-75
2022/06/27 12:28:31;;;;;;;7.95;2.28;;;33.10;59.40;;;;;;4936276;28;20024;-75
2022/06/27 12:30:59;;;;;;;4.55;2.25;;;33.10;59.70;;;;;;4921759;28;20087;-76
2022/06/27 12:33:24;;;;;;;6.18;2.25;;;33.00;59.30;;;;;;4926156;29;20059;-76
2022/06/27 12:35:52;;;;;;;4.13;2.25;;;33.10;60.00;;;;;;4920829;29;20043;-75
2022/06/27 12:38:20;;;;;;;5.85;2.30;;;33.20;59.10;;;;;;4922116;29;20024;-75
2022/06/27 12:41:11;;;;;;;5.65;2.72;;;33.20;59.20;;;;;;4918913;29;20028;-75
2022/06/27 12:43:41;;;;;;;4.55;2.33;;;33.20;60.60;;;;;;4938357;28;20027;-76
2022/06/27 12:46:15;;;;;;;4.32;2.63;;;33.30;58.80;;;;;;4920896;29;20071;-76
2022/06/27 12:48:42;;;;;;;3.75;2.20;;;33.30;59.50;;;;;;4926257;29;20026;-76
2022/06/27 12:51:08;;;;;;;7.55;2.60;;;33.30;60.40;;;;;;4919455;29;20126;-75
2022/06/27 12:53:36;;;;;;;3.40;2.28;;;33.40;60.40;;;;;;4924482;29;20394;-76
2022/06/27 12:56:06;;;;;;;4.05;2.30;;;33.40;60.20;;;;;;4922496;29;20031;-77
2022/06/27 12:58:35;;;;;;;5.43;2.60;;;33.30;60.20;;;;;;4940551;28;20130;-75
2022/06/27 13:01:05;;;;;;;6.32;2.25;;;33.20;59.50;;;;;;4919230;29;20495;-75
2022/06/27 13:03:31;;;;;;;3.17;2.50;;;33.10;59.50;;;;;;4921304;29;20035;-76
2022/06/27 13:05:59;;;;;;;4.05;2.15;;;33.20;60.00;;;;;;4931063;28;20028;-75
2022/06/27 13:08:26;;;;;;;7.05;2.63;;;33.30;59.60;;;;;;4939578;28;20019;-76
2022/06/27 13:10:53;;;;;;;6.55;2.55;;;33.40;59.60;;;;;;4920102;29;20031;-75
2022/06/27 13:13:19;;;;;;;6.25;2.50;;;33.40;59.40;;;;;;4937786;28;20032;-75
2022/06/27 13:15:44;;;;;;;4.80;2.55;;;33.40;59.20;;;;;;4922666;29;20095;-75
2022/06/27 13:18:15;;;;;;;5.15;2.00;;;33.40;59.40;;;;;;4925351;29;20378;-75
2022/06/27 13:20:41;;;;;;;3.75;2.25;;;33.20;59.60;;;;;;4922491;28;20028;-76
2022/06/27 13:23:08;;;;;;;7.38;2.38;;;33.30;60.20;;;;;;4919517;28;20034;-76
2022/06/27 13:25:33;;;;;;;4.70;2.15;;;33.30;59.80;;;;;;4925976;29;20034;-75
2022/06/27 13:28:01;;;;;;;6.43;2.30;;;33.10;59.70;;;;;;4922803;29;20020;-75
2022/06/27 13:30:35;;;;;;;4.13;2.40;;;33.00;60.80;;;;;;4924530;28;20531;-75
2022/06/27 13:33:04;;;;;;;7.35;2.42;;;33.00;60.30;;;;;;4916007;29;20432;-75
2022/06/27 13:35:30;;;;;;;6.53;2.88;;;33.00;60.20;;;;;;4922162;29;20106;-76
2022/06/27 13:38:03;;;;;;;4.30;2.30;;;33.00;60.20;;;;;;4938608;28;20499;-75
2022/06/27 13:40:32;;;;;;;6.13;2.45;;;33.10;59.90;;;;;;4939111;28;20036;-76
2022/06/27 13:43:01;;;;;;;4.43;2.70;;;33.00;60.30;;;;;;4913610;29;20043;-76
2022/06/27 13:45:30;;;;;;;4.25;2.30;;;33.10;60.40;;;;;;4923395;28;20024;-76
2022/06/27 13:47:57;;;;;;;3.67;2.20;;;33.00;60.20;;;;;;4922545;29;20030;-76
2022/06/27 13:50:23;;;;;;;3.95;2.50;;;33.10;59.90;;;;;;4925217;29;20070;-75
2022/06/27 13:52:50;;;;;;;3.10;2.20;;;33.10;59.70;;;;;;4918922;29;20023;-75
2022/06/27 13:55:27;;;;;;;7.65;2.47;;;33.00;60.60;;;;;;4935559;28;20024;-75
2022/06/27 13:57:54;;;;;;;5.75;2.70;;;33.00;60.70;;;;;;4922320;29;20035;-76
2022/06/27 14:00:22;;;;;;;5.70;2.60;;;33.00;61.10;;;;;;4923706;29;20573;-75
2022/06/27 14:02:55;;;;;;;5.28;2.58;;;33.00;60.80;;;;;;4921056;29;20031;-75
2022/06/27 14:05:30;;;;;;;5.10;2.40;;;33.00;60.90;;;;;;4919880;29;20035;-75
2022/06/27 14:07:56;;;;;;;7.13;2.10;;;33.00;60.50;;;;;;4917172;29;20478;-75
2022/06/27 14:10:24;;;;;;;7.32;2.95;;;33.10;60.30;;;;;;4923740;29;20050;-75
2022/06/27 14:12:51;;;;;;;5.32;2.60;;;33.00;60.60;;;;;;4918437;29;20591;-75
2022/06/27 14:15:18;;;;;;;3.67;2.30;;;33.10;61.00;;;;;;4921374;29;20113;-76
2022/06/27 14:17:44;;;;;;;6.25;2.65;;;33.20;61.00;;;;;;4920522;29;20043;-75
2022/06/27 14:20:19;;;;;;;6.50;2.42;;;33.40;60.20;;;;;;4918104;29;20023;-75
2022/06/27 14:22:46;;;;;;;4.55;2.72;;;33.40;59.90;;;;;;4920855;29;20034;-75
2022/06/27 14:25:25;;;;;;;5.05;2.30;;;33.30;60.20;;;;;;4915211;29;20024;-76
2022/06/27 14:27:52;;;;;;;4.10;2.30;;;33.10;60.30;;;;;;4919757;29;21250;-76
2022/06/27 14:30:24;;;;;;;6.25;2.42;;;33.00;60.40;;;;;;4924285;29;20031;-76
2022/06/27 14:32:53;;;;;;;3.47;2.50;;;33.00;60.30;;;;;;4932466;28;20111;-76
2022/06/27 14:35:20;;;;;;;5.65;3.22;;;32.90;60.80;;;;;;4921797;29;20028;-75
2022/06/27 14:37:47;;;;;;;7.47;2.50;;;33.00;60.70;;;;;;4923791;29;20114;-76
2022/06/27 14:40:19;;;;;;;5.43;2.50;;;33.10;60.00;;;;;;4919210;29;20024;-76
2022/06/27 14:42:48;;;;;;;4.18;2.30;;;33.00;59.60;;;;;;4938682;28;20529;-76
2022/06/27 14:45:14;;;;;;;8.38;2.72;;;33.00;60.20;;;;;;4934385;28;20477;-75
2022/06/27 14:47:42;;;;;;;3.53;2.30;;;33.00;60.60;;;;;;4920484;29;20028;-76
2022/06/27 14:50:11;;;;;;;4.85;2.38;;;33.00;61.00;;;;;;4934044;28;21411;-76
2022/06/27 14:52:36;;;;;;;6.05;2.22;;;33.00;61.00;;;;;;4921958;29;20083;-75
2022/06/27 14:55:03;;;;;;;7.00;2.53;;;33.00;60.70;;;;;;4933718;28;20055;-75
2022/06/27 14:57:30;;;;;;;5.03;2.20;;;32.90;61.20;;;;;;4917735;29;20053;-76
2022/06/27 15:00:03;;;;;;;4.22;2.35;;;32.90;61.10;;;;;;4919805;28;20032;-76
2022/06/27 15:02:31;;;;;;;6.35;2.53;;;32.90;60.70;;;;;;4934455;28;20504;-75
2022/06/27 15:04:59;;;;;;;6.18;2.40;;;32.90;60.50;;;;;;4917232;29;20026;-76
2022/06/27 15:07:24;;;;;;;4.93;2.65;;;32.90;60.30;;;;;;4921437;29;20024;-76
2022/06/27 15:09:53;;;;;;;5.07;2.60;;;32.80;61.30;;;;;;4923773;29;20123;-76
2022/06/27 15:12:22;;;;;;;5.55;2.60;;;32.70;61.10;;;;;;4924835;29;20020;-75
2022/06/27 15:14:48;;;;;;;5.93;2.53;;;32.60;62.30;;;;;;4918246;29;20062;-75
2022/06/27 15:17:15;;;;;;;4.32;2.55;;;32.60;61.90;;;;;;4920448;29;20028;-75
2022/06/27 15:19:41;;;;;;;5.40;2.20;;;32.60;61.80;;;;;;4935568;28;20048;-75
2022/06/27 15:22:11;;;;;;;4.63;2.42;;;32.60;62.30;;;;;;4931781;28;20023;-75
2022/06/27 15:24:43;;;;;;;6.72;2.67;;;32.70;62.40;;;;;;4938135;28;20247;-75
2022/06/27 15:27:09;;;;;;;4.72;2.28;;;32.70;62.10;;;;;;4915258;28;20028;-75
2022/06/27 15:29:36;;;;;;;4.45;2.40;;;32.60;62.00;;;;;;4920727;29;20022;-75
2022/06/27 15:32:03;;;;;;;4.07;2.28;;;32.60;61.60;;;;;;4918908;29;20020;-75
2022/06/27 15:34:35;;;;;;;5.80;2.70;;;32.70;61.80;;;;;;4920509;29;20020;-75
2022/06/27 15:37:02;;;;;;;6.38;2.53;;;32.60;61.90;;;;;;4929269;28;20015;-75
2022/06/27 15:39:28;;;;;;;4.22;2.35;;;32.50;62.50;;;;;;4917738;29;20042;-75
2022/06/27 15:41:53;;;;;;;4.93;2.42;;;32.50;62.70;;;;;;4919442;29;20081;-76
2022/06/27 15:44:25;;;;;;;8.05;2.55;;;32.50;63.20;;;;;;4923265;29;20028;-76
2022/06/27 15:46:51;;;;;;;5.20;2.35;;;32.50;62.90;;;;;;4919475;29;20039;-75
2022/06/27 15:49:28;;;;;;;6.10;2.55;;;32.60;62.80;;;;;;4914651;29;20091;-76
2022/06/27 15:51:56;;;;;;;6.28;2.80;;;32.50;62.70;;;;;;4916190;29;20020;-76
2022/06/27 15:54:23;;;;;;;6.63;3.00;;;32.40;63.10;;;;;;4920291;29;20445;-76
2022/06/27 15:56:56;;;;;;;4.22;2.55;;;32.40;63.10;;;;;;4922621;29;20052;-76
2022/06/27 15:59:27;;;;;;;5.45;2.50;;;32.40;63.30;;;;;;4922365;29;20043;-76
2022/06/27 16:01:54;;;;;;;6.28;2.83;;;32.40;63.60;;;;;;4919333;29;20044;-75
2022/06/27 16:04:19;;;;;;;4.18;2.75;;;32.30;63.30;;;;;;4922888;29;20019;-76
2022/06/27 16:06:46;;;;;;;7.78;2.78;;;32.30;63.70;;;;;;4940671;28;20024;-76
2022/06/27 16:09:15;;;;;;;5.40;2.55;;;32.30;63.20;;;;;;4923155;29;20131;-76
2022/06/27 16:11:40;;;;;;;4.05;2.80;;;32.30;63.20;;;;;;4937634;28;20028;-76
2022/06/27 16:14:07;;;;;;;5.15;2.75;;;32.30;63.10;;;;;;4917648;29;20047;-75
2022/06/27 16:16:39;;;;;;;8.85;2.72;;;32.20;63.60;;;;;;4924434;29;20019;-76
2022/06/27 16:19:07;;;;;;;4.95;2.25;;;32.10;63.80;;;;;;4920035;29;20046;-75
2022/06/27 16:21:33;;;;;;;6.78;3.22;;;32.10;64.30;;;;;;4939115;28;20030;-76
2022/06/27 16:24:00;;;;;;;6.15;2.92;;;32.00;64.20;;;;;;4927869;29;20020;-90
2022/06/27 16:26:28;;;;;;;7.72;3.03;;;32.00;64.30;;;;;;4939023;28;20055;-90
2022/06/27 16:28:53;;;;;;;8.45;2.42;;;32.00;64.50;;;;;;4928233;29;20023;-89
2022/06/27 16:31:43;;;;;;;5.20;2.95;;;32.00;64.70;;;;;;4923222;29;20410;-87
2022/06/27 16:34:15;;;;;;;8.55;2.75;;;32.10;64.40;;;;;;4919047;29;20103;-91
2022/06/27 16:36:43;;;;;;;6.13;3.00;;;32.00;64.40;;;;;;4940355;28;20238;-89
2022/06/27 16:39:10;;;;;;;4.55;2.58;;;31.90;64.40;;;;;;4921553;29;20031;-86
2022/06/27 16:44:28;;;;;;;5.43;3.08;;;31.90;64.60;;;;;;4926147;29;20039;-87
2022/06/27 16:46:57;;;;;;;5.45;3.30;;;31.90;64.40;;;;;;4925642;29;20524;-89
2022/06/27 16:49:37;;;;;;;4.05;2.70;;;31.80;65.00;;;;;;4943565;28;20095;-84
2022/06/27 16:52:03;;;;;;;7.82;2.53;;;31.80;65.30;;;;;;4916698;29;20103;-82
2022/06/27 16:54:30;;;;;;;3.92;2.78;;;31.80;64.80;;;;;;4944447;28;20098;-85
2022/06/27 16:56:55;;;;;;;5.18;2.78;;;31.70;64.90;;;;;;4926931;29;20058;-80
2022/06/27 16:59:26;;;;;;;7.32;2.80;;;31.70;65.40;;;;;;4927132;29;20580;-85
2022/06/27 17:01:55;;;;;;;5.60;2.90;;;31.60;65.50;;;;;;4941972;28;20015;-87
2022/06/27 17:04:29;;;;;;;10.80;3.47;;;31.60;65.80;;;;;;4926755;29;20024;-88
2022/06/27 17:06:55;;;;;;;8.82;3.38;;;31.60;66.00;;;;;;4940772;29;20450;-90
2022/06/27 17:09:25;;;;;;;5.82;2.80;;;31.60;65.60;;;;;;4935362;28;20390;-88
2022/06/27 17:12:00;;;;;;;7.75;3.35;;;31.50;65.60;;;;;;4923674;29;20031;-86
2022/06/27 17:14:26;;;;;;;4.43;2.90;;;31.50;66.10;;;;;;4923601;29;20023;-68
2022/06/27 17:16:55;;;;;;;5.65;3.17;;;31.50;66.40;;;;;;4922046;28;20043;-78
2022/06/27 17:19:25;;;;;;;7.68;3.00;;;31.40;66.30;;;;;;4921851;29;20059;-70
2022/06/27 17:21:53;;;;;;;5.88;3.00;;;31.40;66.50;;;;;;4943786;28;20054;-80
2022/06/27 17:24:24;;;;;;;5.72;2.97;;;31.40;66.80;;;;;;4916861;29;20710;-81
2022/06/27 17:26:53;;;;;;;5.85;3.05;;;31.30;66.60;;;;;;4925950;29;20036;-78
2022/06/27 17:29:33;;;;;;;7.13;3.17;;;31.30;66.60;;;;;;4920705;29;20024;-81
2022/06/27 17:32:00;;;;;;;7.65;2.80;;;31.30;66.90;;;;;;4936377;28;20660;-82
2022/06/27 17:34:38;;;;;;;3.38;2.60;;;31.20;67.30;;;;;;4919284;29;20503;-80